Terminal Aerodrome Forecast
Issued by NWS

Current Version | Previous Version | Text Only | Print | Product List | Glossary On
Versions: 1 2 3 4 5 6 7 8 9 10 11 12 13 14 15 16 17
000
FTUS42 TJSJ 221100
TAFISX
TAF
TISX 221123Z 2212/2312 05006KT P6SM VCSH SCT025 BKN060
      TEMPO 2212/2216 3SM SHRA BKN025
     FM221600 08014G22KT P6SM VCTS SCT025CB BKN050
     FM222200 07011KT P6SM VCSH SCT025
      AMD NOT SKED=

USA.gov is the U.S. government's official web portal to all federal, state and local government web resources and services.